createdAt,value
2023-01-22T00:00:40.202Z,27.60
2023-01-22T00:03:07.157Z,30.60
2023-01-22T00:05:34.118Z,27.85
2023-01-22T00:08:01.255Z,25.80
2023-01-22T00:10:28.268Z,26.27
2023-01-22T00:12:55.196Z,29.33
2023-01-22T00:15:22.239Z,24.73
2023-01-22T00:17:49.357Z,28.25
2023-01-22T00:20:17.388Z,26.15
2023-01-22T00:22:44.505Z,26.70
2023-01-22T00:25:12.363Z,31.48
2023-01-22T00:27:41.803Z,25.50
2023-01-22T00:30:09.565Z,31.45
2023-01-22T00:32:36.498Z,27.33
2023-01-22T00:35:03.749Z,27.63
2023-01-22T00:37:30.778Z,28.60
2023-01-22T00:39:57.729Z,29.08
2023-01-22T00:42:25.297Z,31.02
2023-01-22T00:44:53.804Z,31.30
2023-01-22T00:47:20.866Z,32.35
2023-01-22T00:49:48.265Z,29.42
2023-01-22T00:52:15.283Z,32.97
2023-01-22T00:54:42.492Z,30.08
2023-01-22T00:57:09.581Z,27.55
2023-01-22T00:59:36.724Z,27.60
2023-01-22T01:02:04.232Z,32.13
2023-01-22T01:04:31.401Z,27.95
2023-01-22T01:06:58.365Z,28.00
2023-01-22T01:09:25.433Z,27.60
2023-01-22T01:11:52.340Z,28.70
2023-01-22T01:14:19.252Z,29.13
2023-01-22T01:16:46.309Z,27.35
2023-01-22T01:19:13.416Z,27.88
2023-01-22T01:21:40.491Z,28.42
2023-01-22T01:24:07.699Z,27.15
2023-01-22T01:26:35.401Z,24.98
2023-01-22T01:29:04.960Z,23.80
2023-01-22T01:31:32.116Z,24.27
2023-01-22T01:33:59.075Z,23.42
2023-01-22T01:36:50.751Z,23.60
2023-01-22T01:39:13.295Z,26.00
2023-01-22T01:41:40.465Z,31.05
2023-01-22T01:44:19.900Z,25.88
2023-01-22T01:49:48.951Z,28.08
2023-01-22T01:52:18.196Z,30.27
2023-01-22T01:54:50.214Z,28.10
2023-01-22T01:57:30.355Z,27.85
2023-01-22T01:59:59.106Z,26.30
2023-01-22T02:02:26.293Z,23.17
2023-01-22T02:04:54.301Z,27.15
2023-01-22T02:07:21.483Z,26.30
2023-01-22T02:09:48.639Z,26.77
2023-01-22T02:12:15.688Z,30.77
2023-01-22T02:14:44.633Z,26.27
2023-01-22T02:17:31.536Z,25.95
2023-01-22T02:19:58.728Z,25.38
2023-01-22T02:22:31.570Z,25.60
2023-01-22T02:24:59.676Z,31.88
2023-01-22T02:27:27.430Z,25.55
2023-01-22T02:29:54.639Z,24.08
2023-01-22T02:32:22.110Z,27.50
2023-01-22T02:34:49.326Z,24.27
2023-01-22T02:37:17.051Z,28.02
2023-01-22T02:39:44.053Z,27.38
2023-01-22T02:42:12.377Z,25.73
2023-01-22T02:44:41.065Z,27.63
2023-01-22T02:47:08.148Z,26.13
2023-01-22T02:49:35.383Z,28.63
2023-01-22T02:52:02.860Z,36.05
2023-01-22T02:54:30.825Z,33.40
2023-01-22T02:56:57.986Z,33.15
2023-01-22T02:59:25.087Z,31.35
2023-01-22T03:01:52.357Z,33.08
2023-01-22T03:04:19.495Z,29.20
2023-01-22T03:06:47.529Z,29.35
2023-01-22T03:09:17.944Z,26.50
2023-01-22T03:11:46.862Z,25.98
2023-01-22T03:14:39.253Z,28.05
2023-01-22T03:17:26.215Z,25.17
2023-01-22T03:20:11.759Z,29.58
2023-01-22T03:22:38.862Z,27.40
2023-01-22T03:25:06.280Z,25.27
2023-01-22T03:27:33.532Z,26.08
2023-01-22T03:30:00.579Z,23.77
2023-01-22T03:32:32.856Z,20.52
2023-01-22T03:34:59.948Z,19.55
2023-01-22T03:37:32.518Z,20.75
2023-01-22T03:40:00.305Z,20.73
2023-01-22T03:42:35.054Z,20.52
2023-01-22T03:45:03.635Z,19.42
2023-01-22T03:47:31.694Z,15.70
2023-01-22T03:50:00.809Z,13.52
2023-01-22T03:52:28.115Z,13.98
2023-01-22T03:54:55.136Z,13.70
2023-01-22T03:57:22.000Z,12.95
2023-01-22T03:59:49.097Z,12.95
2023-01-22T04:02:16.955Z,12.27
2023-01-22T04:05:01.684Z,10.55
2023-01-22T04:07:29.351Z,12.95
2023-01-22T04:09:56.342Z,10.85
2023-01-22T04:12:23.377Z,13.40
2023-01-22T04:14:51.617Z,11.30
2023-01-22T04:17:19.036Z,10.10
2023-01-22T04:19:51.794Z,11.57
2023-01-22T04:22:37.891Z,10.95
2023-01-22T04:25:07.275Z,13.55
2023-01-22T04:27:37.883Z,14.13
2023-01-22T04:30:06.702Z,11.70
2023-01-22T04:32:34.813Z,10.65
2023-01-22T04:35:20.375Z,10.73
2023-01-22T04:37:52.109Z,11.07
2023-01-22T04:40:20.739Z,11.93
2023-01-22T04:45:16.740Z,12.85
2023-01-22T04:47:46.186Z,12.50
2023-01-22T04:50:21.857Z,13.30
2023-01-22T04:52:51.246Z,14.25
2023-01-22T04:55:19.432Z,15.90
2023-01-22T04:57:56.487Z,12.98
2023-01-22T05:00:24.736Z,12.75
2023-01-22T05:02:59.862Z,11.88
2023-01-22T05:05:29.946Z,13.50
2023-01-22T05:07:57.768Z,11.63
2023-01-22T05:10:24.733Z,11.38
2023-01-22T05:12:53.301Z,17.60
2023-01-22T05:15:25.144Z,16.17
2023-01-22T05:17:56.762Z,14.35
2023-01-22T05:20:23.928Z,16.27
2023-01-22T05:22:51.395Z,13.55
2023-01-22T05:25:23.362Z,11.02
2023-01-22T05:27:50.520Z,11.63
2023-01-22T05:30:30.179Z,12.63
2023-01-22T05:33:11.568Z,12.15
2023-01-22T05:35:39.591Z,12.93
2023-01-22T05:38:06.707Z,15.25
2023-01-22T05:40:33.821Z,13.27
2023-01-22T05:43:03.514Z,13.65
2023-01-22T05:45:31.520Z,11.82
2023-01-22T05:48:12.811Z,13.40
2023-01-22T05:50:55.578Z,11.63
2023-01-22T05:53:22.521Z,11.45
2023-01-22T05:55:49.861Z,14.40
2023-01-22T05:58:17.285Z,14.88
2023-01-22T06:00:47.571Z,13.93
2023-01-22T06:03:16.584Z,15.52
2023-01-22T06:06:06.187Z,14.75
2023-01-22T06:08:34.495Z,16.95
2023-01-22T06:11:02.236Z,14.55
2023-01-22T06:13:29.907Z,24.70
2023-01-22T06:16:03.340Z,17.60
2023-01-22T06:18:48.869Z,18.02
2023-01-22T06:21:16.636Z,18.45
2023-01-22T06:23:44.158Z,20.50
2023-01-22T06:26:11.761Z,17.10
2023-01-22T06:28:39.089Z,18.13
2023-01-22T06:31:07.846Z,19.48
2023-01-22T06:33:37.734Z,17.38
2023-01-22T06:36:06.120Z,20.40
2023-01-22T06:38:33.539Z,21.50
2023-01-22T06:41:03.775Z,20.80
2023-01-22T06:43:32.577Z,18.80
2023-01-22T06:45:59.457Z,21.02
2023-01-22T06:49:05.386Z,20.80
2023-01-22T06:51:32.722Z,22.35
2023-01-22T06:53:59.955Z,21.73
2023-01-22T06:56:29.012Z,22.00
2023-01-22T06:58:58.041Z,26.17
2023-01-22T07:01:26.128Z,22.73
2023-01-22T07:03:53.308Z,27.35
2023-01-22T07:06:20.244Z,28.58
2023-01-22T07:08:47.574Z,35.80
2023-01-22T07:11:15.464Z,31.40
2023-01-22T07:13:42.898Z,29.45
2023-01-22T07:16:10.017Z,34.72
2023-01-22T07:18:37.094Z,36.72
2023-01-22T07:21:05.506Z,30.25
2023-01-22T07:23:32.923Z,31.42
2023-01-22T07:26:00.012Z,53.75
2023-01-22T07:28:26.961Z,46.00
2023-01-22T07:30:54.091Z,48.78
2023-01-22T07:33:21.032Z,36.95
2023-01-22T07:35:57.963Z,34.03
2023-01-22T07:38:27.867Z,35.67
2023-01-22T07:41:00.859Z,30.02
2023-01-22T07:43:28.284Z,27.48
2023-01-22T07:45:55.365Z,28.58
2023-01-22T07:48:22.414Z,29.15
2023-01-22T07:50:49.368Z,26.60
2023-01-22T07:53:16.460Z,38.13
2023-01-22T07:55:43.390Z,64.80
2023-01-22T07:58:11.972Z,36.60
2023-01-22T08:00:39.100Z,30.35
2023-01-22T08:03:10.634Z,29.13
2023-01-22T08:05:42.286Z,28.58
2023-01-22T08:08:14.894Z,29.10
2023-01-22T08:10:42.636Z,28.42
2023-01-22T08:13:09.823Z,25.52
2023-01-22T08:15:37.266Z,29.48
2023-01-22T08:18:04.685Z,30.65
2023-01-22T08:20:31.977Z,26.45
2023-01-22T08:23:00.600Z,27.60
2023-01-22T08:25:28.779Z,30.08
2023-01-22T08:27:56.369Z,33.88
2023-01-22T08:30:23.587Z,38.05
2023-01-22T08:32:51.559Z,38.42
2023-01-22T08:35:18.598Z,39.15
2023-01-22T08:37:45.652Z,36.80
2023-01-22T08:40:14.238Z,41.25
2023-01-22T08:42:41.616Z,40.38
2023-01-22T08:45:09.719Z,37.17
2023-01-22T08:47:36.633Z,38.35
2023-01-22T08:50:07.109Z,37.97
2023-01-22T08:52:33.964Z,39.70
2023-01-22T08:55:01.557Z,43.53
2023-01-22T08:57:29.601Z,38.15
2023-01-22T09:00:01.594Z,38.13
2023-01-22T09:02:30.531Z,34.83
2023-01-22T09:04:57.675Z,36.42
2023-01-22T09:07:25.950Z,33.15
2023-01-22T09:09:53.485Z,34.03
2023-01-22T09:12:20.659Z,30.50
2023-01-22T09:14:47.647Z,33.58
2023-01-22T09:17:14.617Z,33.25
2023-01-22T09:19:42.770Z,36.45
2023-01-22T09:22:09.825Z,36.17
2023-01-22T09:24:37.129Z,33.35
2023-01-22T09:27:04.079Z,31.20
2023-01-22T09:29:31.550Z,36.25
2023-01-22T09:32:01.035Z,30.60
2023-01-22T09:34:28.510Z,28.42
2023-01-22T09:36:55.670Z,26.10
2023-01-22T09:39:22.682Z,26.27
2023-01-22T09:41:53.042Z,25.20
2023-01-22T09:44:31.821Z,27.48
2023-01-22T09:47:07.640Z,23.48
2023-01-22T09:49:50.767Z,25.90
2023-01-22T09:52:17.902Z,19.05
2023-01-22T09:54:44.978Z,20.52
2023-01-22T09:57:29.973Z,23.15
2023-01-22T09:59:58.598Z,26.85
2023-01-22T10:02:44.403Z,26.17
2023-01-22T10:05:33.268Z,24.25
2023-01-22T10:08:19.831Z,24.02
2023-01-22T10:10:48.769Z,26.20
2023-01-22T10:13:23.777Z,26.40
2023-01-22T10:15:55.849Z,29.63
2023-01-22T10:18:43.659Z,28.63
2023-01-22T10:21:23.907Z,25.02
2023-01-22T10:23:51.866Z,25.58
2023-01-22T10:26:25.677Z,23.75
2023-01-22T10:28:56.741Z,25.08
2023-01-22T10:31:31.128Z,24.20
2023-01-22T10:34:00.527Z,23.80
2023-01-22T10:36:29.204Z,25.85
2023-01-22T10:39:22.619Z,21.88
2023-01-22T10:41:50.594Z,23.60
2023-01-22T10:44:25.589Z,22.05
2023-01-22T10:46:55.084Z,20.70
2023-01-22T10:51:57.083Z,19.10
2023-01-22T10:54:23.963Z,17.33
2023-01-22T10:56:51.533Z,15.27
2023-01-22T10:59:23.360Z,13.45
2023-01-22T11:01:58.261Z,14.45
2023-01-22T11:04:31.462Z,11.63
2023-01-22T11:07:06.247Z,14.48
2023-01-22T11:09:39.386Z,12.93
2023-01-22T11:12:20.148Z,12.65
2023-01-22T11:14:58.468Z,11.93
2023-01-22T11:17:34.521Z,11.65
2023-01-22T11:20:11.555Z,10.82
2023-01-22T11:22:43.564Z,15.27
2023-01-22T11:25:14.300Z,8.52
2023-01-22T11:28:07.764Z,12.75
2023-01-22T11:31:03.482Z,17.17
2023-01-22T11:34:07.510Z,14.95
2023-01-22T11:36:38.949Z,16.95
2023-01-22T11:39:24.654Z,15.38
2023-01-22T11:42:11.525Z,18.63
2023-01-22T11:45:16.167Z,17.70
2023-01-22T11:48:12.670Z,16.23
2023-01-22T11:50:48.327Z,13.63
2023-01-22T11:53:27.744Z,12.82
2023-01-22T11:58:42.529Z,10.35
2023-01-22T12:01:25.117Z,11.60
2023-01-22T12:04:01.138Z,8.90
2023-01-22T12:07:22.900Z,10.30
2023-01-22T12:10:28.492Z,7.75
2023-01-22T12:13:14.285Z,8.23
2023-01-22T12:16:05.441Z,9.60
2023-01-22T12:18:51.615Z,11.25
2023-01-22T12:21:53.994Z,6.40
2023-01-22T12:24:42.952Z,6.20
2023-01-22T12:27:15.646Z,5.60
2023-01-22T12:29:54.148Z,4.75
2023-01-22T12:32:31.456Z,8.32
2023-01-22T12:35:05.859Z,8.50
2023-01-22T12:37:44.367Z,8.07
2023-01-22T12:40:11.363Z,6.88
2023-01-22T12:42:49.528Z,6.85
2023-01-22T12:45:53.570Z,7.95
2023-01-22T12:48:49.431Z,9.27
2023-01-22T12:51:39.138Z,9.02
2023-01-22T12:54:27.901Z,7.25
2023-01-22T12:57:09.800Z,6.13
2023-01-22T12:59:45.187Z,10.57
2023-01-22T13:06:29.934Z,6.38
2023-01-22T13:08:57.202Z,6.68
2023-01-22T13:11:39.794Z,5.38
2023-01-22T13:14:15.334Z,4.85
2023-01-22T13:16:55.130Z,7.25
2023-01-22T13:21:50.575Z,6.90
2023-01-22T13:24:22.195Z,7.95
2023-01-22T13:26:52.702Z,8.10
2023-01-22T13:29:34.100Z,4.82
2023-01-22T13:32:04.721Z,5.63
2023-01-22T13:34:32.582Z,5.80
2023-01-22T13:36:59.841Z,8.07
2023-01-22T13:39:30.479Z,4.95
2023-01-22T13:42:00.899Z,7.55
2023-01-22T13:44:47.846Z,7.07
2023-01-22T13:47:29.410Z,5.20
2023-01-22T13:49:56.750Z,6.05
2023-01-22T13:52:25.238Z,7.20
2023-01-22T13:55:11.657Z,6.47
2023-01-22T13:57:51.205Z,4.70
2023-01-22T14:00:51.905Z,7.55
2023-01-22T14:03:23.821Z,5.03
2023-01-22T14:06:01.570Z,7.05
2023-01-22T14:08:28.725Z,7.22
2023-01-22T14:11:00.373Z,5.80
2023-01-22T14:13:27.539Z,4.93
2023-01-22T14:16:02.114Z,5.72
2023-01-22T14:18:29.720Z,5.32
2023-01-22T14:20:56.880Z,6.43
2023-01-22T14:23:24.345Z,6.90
2023-01-22T14:25:54.707Z,5.50
2023-01-22T14:28:23.786Z,7.68
2023-01-22T14:30:51.685Z,6.15
2023-01-22T14:33:25.380Z,6.45
2023-01-22T14:35:53.351Z,7.05
2023-01-22T14:38:20.398Z,7.72
2023-01-22T14:40:47.603Z,8.05
2023-01-22T14:43:14.691Z,6.30
2023-01-22T14:45:43.738Z,6.43
2023-01-22T14:48:15.451Z,6.38
2023-01-22T14:50:43.143Z,7.93
2023-01-22T14:53:11.269Z,6.85
2023-01-22T14:56:01.755Z,8.70
2023-01-22T14:58:30.095Z,6.80
2023-01-22T15:00:57.026Z,6.35
2023-01-22T15:03:24.255Z,5.38
2023-01-22T15:05:52.041Z,7.03
2023-01-22T15:08:19.036Z,8.00
2023-01-22T15:10:46.331Z,7.05
2023-01-22T15:13:13.354Z,6.60
2023-01-22T15:15:40.376Z,7.00
2023-01-22T15:18:08.411Z,8.65
2023-01-22T15:20:35.478Z,7.72
2023-01-22T15:23:02.563Z,7.50
2023-01-22T15:25:29.988Z,7.88
2023-01-22T15:27:57.058Z,7.38
2023-01-22T15:30:24.154Z,7.85
2023-01-22T15:32:51.234Z,7.60
2023-01-22T15:35:18.085Z,6.07
2023-01-22T15:37:50.262Z,6.18
2023-01-22T15:40:19.689Z,6.60
2023-01-22T15:42:46.892Z,5.72
2023-01-22T15:45:13.858Z,6.65
2023-01-22T15:47:40.894Z,8.07
2023-01-22T15:50:08.503Z,6.47
2023-01-22T15:52:35.349Z,5.85
2023-01-22T15:55:07.231Z,6.88
2023-01-22T15:57:36.971Z,7.20
2023-01-22T16:00:06.120Z,11.85
2023-01-22T16:02:41.460Z,9.82
2023-01-22T16:05:09.119Z,7.50
2023-01-22T16:07:37.979Z,5.65
2023-01-22T16:10:06.057Z,7.07
2023-01-22T16:12:34.917Z,9.00
2023-01-22T16:15:02.000Z,11.38
2023-01-22T16:17:29.925Z,9.25
2023-01-22T16:19:56.872Z,9.57
2023-01-22T16:22:24.893Z,8.68
2023-01-22T16:24:52.083Z,9.43
2023-01-22T16:27:19.096Z,9.73
2023-01-22T16:29:46.021Z,8.48
2023-01-22T16:32:13.102Z,8.68
2023-01-22T16:34:40.064Z,9.20
2023-01-22T16:37:07.043Z,10.05
2023-01-22T16:39:36.122Z,10.95
2023-01-22T16:42:03.206Z,12.30
2023-01-22T16:44:33.348Z,12.48
2023-01-22T16:47:00.801Z,9.65
2023-01-22T16:49:32.840Z,12.55
2023-01-22T16:52:16.580Z,9.63
2023-01-22T16:54:48.355Z,10.23
2023-01-22T16:57:15.716Z,10.98
2023-01-22T16:59:42.912Z,13.90
2023-01-22T17:02:16.430Z,11.23
2023-01-22T17:04:44.882Z,13.48
2023-01-22T17:07:27.478Z,14.35
2023-01-22T17:09:59.683Z,11.10
2023-01-22T17:12:26.920Z,13.07
2023-01-22T17:14:54.019Z,12.35
2023-01-22T17:17:21.073Z,10.57
2023-01-22T17:19:48.154Z,11.98
2023-01-22T17:22:15.272Z,11.05
2023-01-22T17:24:42.293Z,11.48
2023-01-22T17:27:09.689Z,12.02
2023-01-22T17:29:36.886Z,12.38
2023-01-22T17:32:04.787Z,11.98
2023-01-22T17:34:32.005Z,13.13
2023-01-22T17:37:00.526Z,12.43
2023-01-22T17:39:27.866Z,11.07
2023-01-22T17:41:54.904Z,10.85
2023-01-22T17:44:22.048Z,9.90
2023-01-22T17:46:51.263Z,14.15
2023-01-22T17:49:18.179Z,13.68
2023-01-22T17:51:45.143Z,11.68
2023-01-22T17:54:12.327Z,10.82
2023-01-22T17:56:47.327Z,16.15
2023-01-22T17:59:16.764Z,13.63
2023-01-22T18:01:45.208Z,12.55
2023-01-22T18:04:13.807Z,16.67
2023-01-22T18:06:43.549Z,16.90
2023-01-22T18:09:12.479Z,15.97
2023-01-22T18:11:41.094Z,16.30
2023-01-22T18:14:11.947Z,13.50
2023-01-22T18:16:41.014Z,17.30
2023-01-22T18:19:08.447Z,17.58
2023-01-22T18:21:37.421Z,18.90
2023-01-22T18:24:06.630Z,14.52
2023-01-22T18:26:34.943Z,16.77
2023-01-22T18:29:02.839Z,16.52
2023-01-22T18:31:30.293Z,14.00
2023-01-22T18:34:02.893Z,15.05
2023-01-22T18:36:32.714Z,22.40
2023-01-22T18:39:01.754Z,16.30
2023-01-22T18:41:29.049Z,16.02
2023-01-22T18:43:58.696Z,19.23
2023-01-22T18:46:28.566Z,16.85
2023-01-22T18:48:58.384Z,20.35
2023-01-22T18:51:26.741Z,19.67
2023-01-22T18:53:54.518Z,19.63
2023-01-22T18:56:21.812Z,16.80
2023-01-22T18:58:49.018Z,16.15
2023-01-22T19:01:22.101Z,16.38
2023-01-22T19:03:55.139Z,14.50
2023-01-22T19:06:24.596Z,16.88
2023-01-22T19:09:03.962Z,18.10
2023-01-22T19:14:00.364Z,14.75
2023-01-22T19:16:28.229Z,15.32
2023-01-22T19:18:58.121Z,15.77
2023-01-22T19:21:27.017Z,16.33
2023-01-22T19:23:57.515Z,16.45
2023-01-22T19:26:27.250Z,14.98
2023-01-22T19:28:57.539Z,17.58
2023-01-22T19:31:28.581Z,15.45
2023-01-22T19:33:56.594Z,15.50
2023-01-22T19:36:27.378Z,13.70
2023-01-22T19:38:56.441Z,12.40
2023-01-22T19:41:23.787Z,11.90
2023-01-22T19:43:55.135Z,13.57
2023-01-22T19:46:22.415Z,18.20
2023-01-22T19:48:49.590Z,15.82
2023-01-22T19:51:19.204Z,15.38
2023-01-22T19:53:48.735Z,12.77
2023-01-22T19:58:51.927Z,12.75
2023-01-22T20:01:19.172Z,11.82
2023-01-22T20:03:46.111Z,13.30
2023-01-22T20:06:14.693Z,11.80
2023-01-22T20:08:42.360Z,8.40
2023-01-22T20:11:11.384Z,11.80
2023-01-22T20:13:39.414Z,10.88
2023-01-22T20:16:07.162Z,9.90
2023-01-22T20:18:34.767Z,10.25
2023-01-22T20:21:04.188Z,11.55
2023-01-22T20:23:31.426Z,10.70
2023-01-22T20:26:00.713Z,13.73
2023-01-22T20:28:27.976Z,10.25
2023-01-22T20:31:04.787Z,14.50
2023-01-22T20:33:32.482Z,12.57
2023-01-22T20:36:02.549Z,11.23
2023-01-22T20:38:30.037Z,12.02
2023-01-22T20:41:02.354Z,10.65
2023-01-22T20:43:30.024Z,10.95
2023-01-22T20:46:03.110Z,11.40
2023-01-22T20:48:31.762Z,10.77
2023-01-22T20:50:59.172Z,9.83
2023-01-22T20:53:27.644Z,12.00
2023-01-22T20:56:07.911Z,12.52
2023-01-22T20:58:35.980Z,12.85
2023-01-22T21:01:11.730Z,13.35
2023-01-22T21:03:38.730Z,12.05
2023-01-22T21:06:08.236Z,13.68
2023-01-22T21:08:35.380Z,12.65
2023-01-22T21:11:08.480Z,15.10
2023-01-22T21:13:36.547Z,14.25
2023-01-22T21:16:10.476Z,15.13
2023-01-22T21:18:41.567Z,16.35
2023-01-22T21:21:14.632Z,13.90
2023-01-22T21:23:41.736Z,13.15
2023-01-22T21:26:12.091Z,12.13
2023-01-22T21:28:40.129Z,16.25
2023-01-22T21:31:13.237Z,13.32
2023-01-22T21:33:40.784Z,14.63
2023-01-22T21:36:09.061Z,12.98
2023-01-22T21:38:36.783Z,12.77
2023-01-22T21:41:12.924Z,11.88
2023-01-22T21:44:00.679Z,13.85
2023-01-22T21:46:30.789Z,12.30
2023-01-22T21:49:01.484Z,13.23
2023-01-22T21:51:29.865Z,14.60
2023-01-22T21:53:58.708Z,16.88
2023-01-22T21:56:26.716Z,15.30
2023-01-22T21:58:55.668Z,15.30
2023-01-22T22:01:22.717Z,15.48
2023-01-22T22:03:49.697Z,15.70
2023-01-22T22:06:16.751Z,15.98
2023-01-22T22:08:44.497Z,14.77
2023-01-22T22:11:14.118Z,12.18
2023-01-22T22:13:41.119Z,14.50
2023-01-22T22:16:10.284Z,11.38
2023-01-22T22:18:37.583Z,12.45
2023-01-22T22:21:07.504Z,11.98
2023-01-22T22:23:36.528Z,12.07
2023-01-22T22:26:05.832Z,13.88
2023-01-22T22:28:34.347Z,10.98
2023-01-22T22:31:08.290Z,11.43
2023-01-22T22:33:35.242Z,11.27
2023-01-22T22:36:02.278Z,12.25
2023-01-22T22:38:29.267Z,10.70
2023-01-22T22:41:02.103Z,12.45
2023-01-22T22:43:38.023Z,12.05
2023-01-22T22:46:32.810Z,11.68
2023-01-22T22:49:01.403Z,13.85
2023-01-22T22:51:32.188Z,12.83
2023-01-22T22:54:02.382Z,14.98
2023-01-22T22:56:29.859Z,15.13
2023-01-22T22:58:58.909Z,15.10
2023-01-22T23:01:26.918Z,15.35
2023-01-22T23:03:54.328Z,14.10
2023-01-22T23:06:26.924Z,13.77
2023-01-22T23:09:09.790Z,14.30
2023-01-22T23:11:36.898Z,15.05
2023-01-22T23:14:04.837Z,14.35
2023-01-22T23:16:34.619Z,13.02
2023-01-22T23:19:04.283Z,12.88
2023-01-22T23:21:35.119Z,10.55
2023-01-22T23:24:02.786Z,11.00
2023-01-22T23:26:30.787Z,10.52
2023-01-22T23:29:00.766Z,10.70
2023-01-22T23:31:30.168Z,10.95
2023-01-22T23:36:28.513Z,14.38
2023-01-22T23:38:55.730Z,10.73
2023-01-22T23:41:23.526Z,14.00
2023-01-22T23:43:51.161Z,11.43
2023-01-22T23:46:24.043Z,10.82
2023-01-22T23:48:51.684Z,15.18
2023-01-22T23:51:19.522Z,12.52
2023-01-22T23:53:48.563Z,13.50
2023-01-22T23:56:16.105Z,12.02
2023-01-22T23:58:43.472Z,13.10
